Terminal Aerodrome Forecast
Issued by NWS

Home | Current Version | Previous Version | Text Only | Print | Product List | Glossary On
Versions: 1 2 3 4 5 6 7 8 9 10 11 12 13 14 15 16 17 18 19 20 21 22 23 24
000
FTUS41 KGYX 251124
TAFPSM
TAF
KPSM 251124Z 2512/2612 VRB03KT 1/4SM FG OVC002 WS010/20040KT
     FM251300 16007KT 1SM -RA BR OVC002 WS010/20040KT
     FM251400 25015G30KT P6SM BKN050
     FM260000 27011KT P6SM SKC=

USA.gov is the U.S. government's official web portal to all federal, state and local government web resources and services.